createdAt,value
2017-12-19T00:00:28.359Z,1031.55
2017-12-19T00:01:28.334Z,1031.56
2017-12-19T00:02:28.312Z,1031.51
2017-12-19T00:03:28.292Z,1031.49
2017-12-19T00:04:28.269Z,1031.50
2017-12-19T00:05:28.247Z,1031.57
2017-12-19T00:06:28.225Z,1031.56
2017-12-19T00:07:28.205Z,1031.55
2017-12-19T00:08:28.182Z,1031.54
2017-12-19T00:09:28.160Z,1031.56
2017-12-19T00:10:28.139Z,1031.59
2017-12-19T00:11:28.117Z,1031.63
2017-12-19T00:12:28.095Z,1031.67
2017-12-19T00:13:28.073Z,1031.68
2017-12-19T00:14:28.051Z,1031.69
2017-12-19T00:15:28.038Z,1031.67
2017-12-19T00:16:28.008Z,1031.65
2017-12-19T00:17:27.985Z,1031.66
2017-12-19T00:18:27.965Z,1031.70
2017-12-19T00:19:27.944Z,1031.68
2017-12-19T00:20:27.920Z,1031.71
2017-12-19T00:21:27.903Z,1031.66
2017-12-19T00:22:27.878Z,1031.63
2017-12-19T00:23:27.857Z,1031.60
2017-12-19T00:24:27.834Z,1031.60
2017-12-19T00:25:27.811Z,1031.57
2017-12-19T00:26:27.793Z,1031.61
2017-12-19T00:27:27.767Z,1031.62
2017-12-19T00:28:27.745Z,1031.67
2017-12-19T00:29:27.723Z,1031.70
2017-12-19T00:30:27.703Z,1031.74
2017-12-19T00:31:27.681Z,1031.75
2017-12-19T00:32:27.658Z,1031.88
2017-12-19T00:33:27.635Z,1031.94
2017-12-19T00:34:27.614Z,1031.96
2017-12-19T00:35:27.593Z,1031.95
2017-12-19T00:36:27.570Z,1031.94
2017-12-19T00:37:27.548Z,1031.98
2017-12-19T00:38:27.527Z,1032.03
2017-12-19T00:39:27.505Z,1032.04
2017-12-19T00:40:27.484Z,1032.03
2017-12-19T00:41:27.460Z,1032.10
2017-12-19T00:42:27.443Z,1032.14
2017-12-19T00:43:27.417Z,1032.15
2017-12-19T00:44:27.395Z,1032.17
2017-12-19T00:45:27.373Z,1032.15
2017-12-19T00:46:27.354Z,1032.17
2017-12-19T00:47:27.329Z,1032.20
2017-12-19T00:48:27.306Z,1032.22
2017-12-19T00:49:27.285Z,1032.27
2017-12-19T00:50:27.263Z,1032.28
2017-12-19T00:51:27.242Z,1032.27
2017-12-19T00:52:27.219Z,1032.29
2017-12-19T00:53:27.196Z,1032.28
2017-12-19T00:54:27.176Z,1032.28
2017-12-19T00:55:27.153Z,1032.24
2017-12-19T00:56:27.130Z,1032.21
2017-12-19T00:57:27.109Z,1032.18
2017-12-19T00:58:27.088Z,1032.21
2017-12-19T00:59:27.066Z,1032.19
2017-12-19T01:00:27.043Z,1032.24
2017-12-19T01:01:27.020Z,1032.25
2017-12-19T01:02:26.999Z,1032.21
2017-12-19T01:03:26.976Z,1032.18
2017-12-19T01:04:26.954Z,1032.13
2017-12-19T01:05:26.932Z,1032.14
2017-12-19T01:06:26.911Z,1032.16
2017-12-19T01:07:26.888Z,1032.15
2017-12-19T01:08:26.865Z,1032.17
2017-12-19T01:09:26.844Z,1032.24
2017-12-19T01:10:26.824Z,1032.22
2017-12-19T01:11:26.800Z,1032.18
2017-12-19T01:12:26.776Z,1032.13
2017-12-19T01:13:26.755Z,1032.12
2017-12-19T01:14:26.733Z,1032.14
2017-12-19T01:15:26.711Z,1032.18
2017-12-19T01:16:26.688Z,1032.22
2017-12-19T01:17:26.668Z,1032.23
2017-12-19T01:18:26.645Z,1032.20
2017-12-19T01:19:26.623Z,1032.21
2017-12-19T01:20:26.601Z,1032.25
2017-12-19T01:21:26.579Z,1032.26
2017-12-19T01:22:26.557Z,1032.24
2017-12-19T01:23:26.534Z,1032.24
2017-12-19T01:24:26.511Z,1032.29
2017-12-19T01:25:26.493Z,1032.32
2017-12-19T01:26:26.468Z,1032.40
2017-12-19T01:27:26.447Z,1032.41
2017-12-19T01:28:26.427Z,1032.42
2017-12-19T01:29:26.401Z,1032.42
2017-12-19T01:30:26.381Z,1032.39
2017-12-19T01:31:26.359Z,1032.38
2017-12-19T01:32:26.337Z,1032.37
2017-12-19T01:33:26.314Z,1032.38
2017-12-19T01:34:26.292Z,1032.39
2017-12-19T01:35:26.271Z,1032.47
2017-12-19T01:36:26.248Z,1032.41
2017-12-19T01:37:26.227Z,1032.44
2017-12-19T01:38:26.206Z,1032.37
2017-12-19T01:39:26.185Z,1032.37
2017-12-19T01:40:26.161Z,1032.36
2017-12-19T01:41:26.140Z,1032.48
2017-12-19T01:42:26.118Z,1032.51
2017-12-19T01:43:26.097Z,1032.49
2017-12-19T01:44:26.080Z,1032.48
2017-12-19T01:45:26.054Z,1032.50
2017-12-19T01:46:26.032Z,1032.48
2017-12-19T01:47:26.011Z,1032.49
2017-12-19T01:48:25.989Z,1032.47
2017-12-19T01:49:25.966Z,1032.46
2017-12-19T01:50:25.944Z,1032.49
2017-12-19T01:51:25.927Z,1032.45
2017-12-19T01:52:25.901Z,1032.54
2017-12-19T01:53:25.879Z,1032.55
2017-12-19T01:54:25.858Z,1032.60
2017-12-19T01:55:25.835Z,1032.61
2017-12-19T01:56:25.812Z,1032.63
2017-12-19T01:57:25.791Z,1032.65
2017-12-19T01:58:25.769Z,1032.67
2017-12-19T01:59:25.748Z,1032.70
2017-12-19T02:00:25.724Z,1032.72
2017-12-19T02:01:25.702Z,1032.70
2017-12-19T02:02:25.680Z,1032.70
2017-12-19T02:03:25.659Z,1032.72
2017-12-19T02:04:25.639Z,1032.75
2017-12-19T02:05:25.614Z,1032.76
2017-12-19T02:06:25.591Z,1032.75
2017-12-19T02:07:25.570Z,1032.76
2017-12-19T02:08:25.545Z,1032.75
2017-12-19T02:09:25.524Z,1032.74
2017-12-19T02:10:25.502Z,1032.69
2017-12-19T02:11:25.480Z,1032.67
2017-12-19T02:12:25.457Z,1032.71
2017-12-19T02:13:25.435Z,1032.71
2017-12-19T02:14:25.423Z,1032.68
2017-12-19T02:15:25.390Z,1032.67
2017-12-19T02:16:25.366Z,1032.58
2017-12-19T02:17:25.347Z,1032.60
2017-12-19T02:18:25.323Z,1032.62
2017-12-19T02:19:25.300Z,1032.59
2017-12-19T02:20:25.277Z,1032.57
2017-12-19T02:21:25.254Z,1032.57
2017-12-19T02:22:25.232Z,1032.58
2017-12-19T02:23:25.212Z,1032.61
2017-12-19T02:24:25.187Z,1032.60
2017-12-19T02:25:25.165Z,1032.62
2017-12-19T02:26:25.144Z,1032.58
2017-12-19T02:27:25.121Z,1032.57
2017-12-19T02:28:25.100Z,1032.60
2017-12-19T02:29:25.075Z,1032.59
2017-12-19T02:30:25.053Z,1032.61
2017-12-19T02:31:25.032Z,1032.58
2017-12-19T02:32:25.010Z,1032.57
2017-12-19T02:33:24.986Z,1032.57
2017-12-19T02:34:24.963Z,1032.57
2017-12-19T02:35:24.942Z,1032.63
2017-12-19T02:36:24.919Z,1032.59
2017-12-19T02:37:24.896Z,1032.63
2017-12-19T02:38:24.873Z,1032.65
2017-12-19T02:39:24.851Z,1032.63
2017-12-19T02:40:24.828Z,1032.61
2017-12-19T02:41:24.807Z,1032.62
2017-12-19T02:42:24.783Z,1032.62
2017-12-19T02:43:24.762Z,1032.58
2017-12-19T02:44:24.743Z,1032.60
2017-12-19T02:45:24.716Z,1032.61
2017-12-19T02:46:24.694Z,1032.64
2017-12-19T02:47:24.671Z,1032.68
2017-12-19T02:48:24.648Z,1032.76
2017-12-19T02:49:24.625Z,1032.77
2017-12-19T02:50:24.603Z,1032.74
2017-12-19T02:51:24.580Z,1032.75
2017-12-19T02:52:24.559Z,1032.75
2017-12-19T02:53:24.535Z,1032.73
2017-12-19T02:54:24.514Z,1032.76
2017-12-19T02:55:24.491Z,1032.75
2017-12-19T02:56:24.468Z,1032.76
2017-12-19T02:57:24.445Z,1032.75
2017-12-19T02:58:24.423Z,1032.77
2017-12-19T02:59:24.400Z,1032.81
2017-12-19T03:00:24.377Z,1032.85
2017-12-19T03:01:24.356Z,1032.82
2017-12-19T03:02:24.334Z,1032.80
2017-12-19T03:03:24.317Z,1032.78
2017-12-19T03:04:24.287Z,1032.70
2017-12-19T03:05:24.265Z,1032.70
2017-12-19T03:06:24.243Z,1032.71
2017-12-19T03:07:24.221Z,1032.71
2017-12-19T03:08:24.199Z,1032.71
2017-12-19T03:09:24.175Z,1032.74
2017-12-19T03:10:24.153Z,1032.72
2017-12-19T03:11:24.131Z,1032.74
2017-12-19T03:12:24.107Z,1032.72
2017-12-19T03:13:24.084Z,1032.71
2017-12-19T03:14:24.062Z,1032.68
2017-12-19T03:15:24.039Z,1032.69
2017-12-19T03:16:24.017Z,1032.70
2017-12-19T03:17:23.995Z,1032.70
2017-12-19T03:18:23.971Z,1032.76
2017-12-19T03:19:23.950Z,1032.73
2017-12-19T03:20:23.927Z,1032.71
2017-12-19T03:21:23.904Z,1032.73
2017-12-19T03:22:23.882Z,1032.71
2017-12-19T03:23:23.858Z,1032.69
2017-12-19T03:24:23.836Z,1032.71
2017-12-19T03:25:23.814Z,1032.72
2017-12-19T03:26:23.792Z,1032.73
2017-12-19T03:27:23.771Z,1032.73
2017-12-19T03:28:23.744Z,1032.74
2017-12-19T03:29:23.725Z,1032.74
2017-12-19T03:30:23.703Z,1032.69
2017-12-19T03:31:23.679Z,1032.73
2017-12-19T03:32:23.654Z,1032.74
2017-12-19T03:33:23.631Z,1032.75
2017-12-19T03:34:23.611Z,1032.75
2017-12-19T03:35:23.588Z,1032.78
2017-12-19T03:36:23.565Z,1032.74
2017-12-19T03:37:23.542Z,1032.72
2017-12-19T03:38:23.520Z,1032.68
2017-12-19T03:39:23.497Z,1032.65
2017-12-19T03:40:23.473Z,1032.64
2017-12-19T03:41:23.450Z,1032.66
2017-12-19T03:42:23.428Z,1032.61
2017-12-19T03:43:23.407Z,1032.64
2017-12-19T03:44:23.382Z,1032.61
2017-12-19T03:45:23.361Z,1032.64
2017-12-19T03:46:23.338Z,1032.64
2017-12-19T03:47:23.316Z,1032.62
2017-12-19T03:48:23.292Z,1032.63
2017-12-19T03:49:23.271Z,1032.63
2017-12-19T03:50:23.249Z,1032.65
2017-12-19T03:51:23.225Z,1032.65
2017-12-19T03:52:23.202Z,1032.73
2017-12-19T03:53:23.180Z,1032.72
2017-12-19T03:54:23.158Z,1032.71
2017-12-19T03:55:23.136Z,1032.70
2017-12-19T03:56:23.113Z,1032.74
2017-12-19T03:57:23.089Z,1032.72
2017-12-19T03:58:23.068Z,1032.70
2017-12-19T03:59:23.046Z,1032.69
2017-12-19T04:00:23.023Z,1032.71
2017-12-19T04:01:23.000Z,1032.71
2017-12-19T04:02:22.978Z,1032.71
2017-12-19T04:03:22.956Z,1032.71
2017-12-19T04:04:22.932Z,1032.72
2017-12-19T04:05:22.910Z,1032.73
2017-12-19T04:06:22.888Z,1032.70
2017-12-19T04:07:22.866Z,1032.72
2017-12-19T04:08:22.844Z,1032.71
2017-12-19T04:09:22.821Z,1032.73
2017-12-19T04:10:22.798Z,1032.72
2017-12-19T04:11:22.777Z,1032.72
2017-12-19T04:12:22.755Z,1032.75
2017-12-19T04:13:22.733Z,1032.75
2017-12-19T04:14:22.710Z,1032.76
2017-12-19T04:15:22.688Z,1032.72
2017-12-19T04:16:22.666Z,1032.76
2017-12-19T04:17:22.644Z,1032.77
2017-12-19T04:18:22.622Z,1032.78
2017-12-19T04:19:22.600Z,1032.77
2017-12-19T04:20:22.577Z,1032.75
2017-12-19T04:21:22.554Z,1032.74
2017-12-19T04:22:22.536Z,1032.74
2017-12-19T04:23:22.511Z,1032.78
2017-12-19T04:24:22.488Z,1032.74
2017-12-19T04:25:22.469Z,1032.81
2017-12-19T04:26:22.445Z,1032.80
2017-12-19T04:27:22.423Z,1032.74
2017-12-19T04:28:22.401Z,1032.74
2017-12-19T04:29:22.378Z,1032.72
2017-12-19T04:30:22.359Z,1032.73
2017-12-19T04:31:22.335Z,1032.73
2017-12-19T04:32:22.312Z,1032.74
2017-12-19T04:33:22.290Z,1032.73
2017-12-19T04:34:22.267Z,1032.73
2017-12-19T04:35:22.246Z,1032.77
2017-12-19T04:36:22.225Z,1032.78
2017-12-19T04:37:22.202Z,1032.78
2017-12-19T04:38:22.180Z,1032.72
2017-12-19T04:39:22.159Z,1032.71
2017-12-19T04:40:22.137Z,1032.71
2017-12-19T04:41:22.115Z,1032.69
2017-12-19T04:42:22.093Z,1032.70
2017-12-19T04:43:22.071Z,1032.73
2017-12-19T04:44:22.055Z,1032.75
2017-12-19T04:45:22.027Z,1032.75
2017-12-19T04:46:22.004Z,1032.80
2017-12-19T04:47:21.983Z,1032.77
2017-12-19T04:48:21.960Z,1032.77
2017-12-19T04:49:21.938Z,1032.77
2017-12-19T04:50:21.916Z,1032.77
2017-12-19T04:51:21.895Z,1032.77
2017-12-19T04:52:21.871Z,1032.81
2017-12-19T04:53:21.850Z,1032.80
2017-12-19T04:54:21.828Z,1032.83
2017-12-19T04:55:21.807Z,1032.86
2017-12-19T04:56:21.783Z,1032.88
2017-12-19T04:57:21.763Z,1032.87
2017-12-19T04:58:21.740Z,1032.85
2017-12-19T04:59:21.721Z,1032.87
2017-12-19T05:00:21.748Z,1032.90
2017-12-19T05:01:21.674Z,1032.91
2017-12-19T05:02:21.653Z,1032.94
2017-12-19T05:03:21.632Z,1032.97
2017-12-19T05:04:21.608Z,1032.95
2017-12-19T05:05:21.587Z,1032.99
2017-12-19T05:06:21.566Z,1033.01
2017-12-19T05:07:21.543Z,1033.00
2017-12-19T05:08:21.520Z,1033.03
2017-12-19T05:09:21.500Z,1033.00
2017-12-19T05:10:21.477Z,1033.07
2017-12-19T05:11:21.455Z,1033.03
2017-12-19T05:12:21.434Z,1033.00
2017-12-19T05:13:21.410Z,1033.04
2017-12-19T05:14:21.388Z,1033.02
2017-12-19T05:15:21.371Z,1033.04
2017-12-19T05:16:21.345Z,1033.04
2017-12-19T05:17:21.325Z,1033.06
2017-12-19T05:18:21.301Z,1033.09
2017-12-19T05:19:21.280Z,1033.08
2017-12-19T05:20:21.258Z,1033.10
2017-12-19T05:21:21.235Z,1033.09
2017-12-19T05:22:21.213Z,1033.12
2017-12-19T05:23:21.191Z,1033.10
2017-12-19T05:24:21.168Z,1033.13
2017-12-19T05:25:21.147Z,1033.12
2017-12-19T05:26:21.125Z,1033.15
2017-12-19T05:27:21.103Z,1033.17
2017-12-19T05:28:21.081Z,1033.16
2017-12-19T05:29:21.060Z,1033.20
2017-12-19T05:30:21.038Z,1033.19
2017-12-19T05:31:21.017Z,1033.22
2017-12-19T05:32:20.993Z,1033.24
2017-12-19T05:33:20.971Z,1033.24
2017-12-19T05:34:20.951Z,1033.25
2017-12-19T05:35:20.929Z,1033.23
2017-12-19T05:36:20.905Z,1033.25
2017-12-19T05:37:20.884Z,1033.28
2017-12-19T05:38:20.862Z,1033.25
2017-12-19T05:39:20.840Z,1033.27
2017-12-19T05:40:20.817Z,1033.28
2017-12-19T05:41:20.797Z,1033.30
2017-12-19T05:42:20.774Z,1033.28
2017-12-19T05:43:20.752Z,1033.33
2017-12-19T05:44:20.729Z,1033.34
2017-12-19T05:45:20.708Z,1033.37
2017-12-19T05:46:20.687Z,1033.38
2017-12-19T05:47:20.664Z,1033.34
2017-12-19T05:48:20.641Z,1033.39
2017-12-19T05:49:20.621Z,1033.40
2017-12-19T05:50:20.602Z,1033.40
2017-12-19T05:51:20.579Z,1033.36
2017-12-19T05:52:20.554Z,1033.39
2017-12-19T05:53:20.533Z,1033.40
2017-12-19T05:54:20.511Z,1033.41
2017-12-19T05:55:20.490Z,1033.41
2017-12-19T05:56:20.468Z,1033.44
2017-12-19T05:57:20.445Z,1033.46
2017-12-19T05:58:20.425Z,1033.43
2017-12-19T05:59:20.404Z,1033.47
2017-12-19T06:00:20.382Z,1033.48
2017-12-19T06:01:20.359Z,1033.52
2017-12-19T06:02:20.337Z,1033.54
2017-12-19T06:03:20.317Z,1033.57
2017-12-19T06:04:20.294Z,1033.57
2017-12-19T06:05:20.271Z,1033.57
2017-12-19T06:06:20.251Z,1033.57
2017-12-19T06:07:20.230Z,1033.59
2017-12-19T06:08:20.208Z,1033.63
2017-12-19T06:09:20.190Z,1033.56
2017-12-19T06:10:20.163Z,1033.60
2017-12-19T06:12:20.120Z,1033.57
2017-12-19T06:13:20.099Z,1033.58
2017-12-19T06:14:20.078Z,1033.60
2017-12-19T06:15:20.057Z,1033.60
2017-12-19T06:16:20.034Z,1033.57
2017-12-19T06:17:20.013Z,1033.55
2017-12-19T06:18:19.990Z,1033.56
2017-12-19T06:19:19.969Z,1033.53
2017-12-19T06:20:19.948Z,1033.53
2017-12-19T06:21:19.926Z,1033.54
2017-12-19T06:22:19.906Z,1033.55
2017-12-19T06:23:19.884Z,1033.55
2017-12-19T06:24:19.860Z,1033.56
2017-12-19T06:25:19.840Z,1033.58
2017-12-19T06:26:19.822Z,1033.55
2017-12-19T06:27:19.796Z,1033.62
2017-12-19T06:28:19.774Z,1033.63
2017-12-19T06:29:19.756Z,1033.60
2017-12-19T06:30:19.732Z,1033.55
2017-12-19T06:31:19.711Z,1033.58
2017-12-19T06:32:19.688Z,1033.61
2017-12-19T06:33:19.668Z,1033.62
2017-12-19T06:34:19.647Z,1033.63
2017-12-19T06:35:19.625Z,1033.62
2017-12-19T06:36:19.603Z,1033.59
2017-12-19T06:37:19.583Z,1033.59
2017-12-19T06:38:19.590Z,1033.57
2017-12-19T06:39:19.539Z,1033.57
2017-12-19T06:40:19.518Z,1033.59
2017-12-19T06:41:19.496Z,1033.58
2017-12-19T06:42:19.475Z,1033.59
2017-12-19T06:43:19.453Z,1033.58
2017-12-19T06:44:19.433Z,1033.57
2017-12-19T06:45:19.411Z,1033.56
2017-12-19T06:46:19.388Z,1033.55
2017-12-19T06:47:19.366Z,1033.57
2017-12-19T06:48:19.344Z,1033.60
2017-12-19T06:49:19.323Z,1033.63
2017-12-19T06:50:19.304Z,1033.62
2017-12-19T06:51:19.281Z,1033.61
2017-12-19T06:52:19.259Z,1033.58
2017-12-19T06:53:19.238Z,1033.60
2017-12-19T06:54:19.216Z,1033.55
2017-12-19T06:55:19.195Z,1033.61
2017-12-19T06:57:19.154Z,1033.60
2017-12-19T06:58:19.130Z,1033.64
2017-12-19T06:59:19.111Z,1033.66
2017-12-19T07:00:19.088Z,1033.68
2017-12-19T07:01:19.095Z,1033.73
2017-12-19T07:02:19.046Z,1033.73
2017-12-19T07:03:19.026Z,1033.72
2017-12-19T07:04:19.005Z,1033.79
2017-12-19T07:05:18.988Z,1033.73
2017-12-19T07:06:18.960Z,1033.79
2017-12-19T07:07:18.938Z,1033.80
2017-12-19T07:08:18.914Z,1033.80
2017-12-19T07:09:18.895Z,1033.80
2017-12-19T07:10:18.872Z,1033.77
2017-12-19T07:11:18.852Z,1033.78
2017-12-19T07:12:18.830Z,1033.79
2017-12-19T07:13:18.808Z,1033.85
2017-12-19T07:14:18.788Z,1033.84
2017-12-19T07:15:18.767Z,1033.83
2017-12-19T07:16:18.743Z,1033.83
2017-12-19T07:17:18.723Z,1033.87
2017-12-19T07:18:18.701Z,1033.89
2017-12-19T07:19:18.679Z,1033.92
2017-12-19T07:20:18.660Z,1033.93
2017-12-19T07:21:18.636Z,1033.95
2017-12-19T07:22:18.614Z,1034.00
2017-12-19T07:23:18.593Z,1034.01
2017-12-19T07:24:18.570Z,1034.05
2017-12-19T07:25:18.549Z,1034.00
2017-12-19T07:26:18.530Z,1034.01
2017-12-19T07:27:18.508Z,1033.97
2017-12-19T07:28:18.485Z,1034.02
2017-12-19T07:29:18.463Z,1034.00
2017-12-19T07:30:18.442Z,1034.01
2017-12-19T07:31:18.421Z,1033.99
2017-12-19T07:32:18.398Z,1034.04
2017-12-19T07:33:18.377Z,1034.00
2017-12-19T07:34:18.356Z,1033.98
2017-12-19T07:35:18.335Z,1034.01
2017-12-19T07:36:18.313Z,1034.03
2017-12-19T07:37:18.292Z,1034.03
2017-12-19T07:38:18.269Z,1034.04
2017-12-19T07:39:18.249Z,1034.03
2017-12-19T07:40:18.225Z,1034.06
2017-12-19T07:41:18.213Z,1034.06
2017-12-19T07:42:18.184Z,1034.08
2017-12-19T07:43:18.172Z,1034.09
2017-12-19T07:44:18.140Z,1034.09
2017-12-19T07:45:18.119Z,1034.11
2017-12-19T07:46:18.098Z,1034.07
2017-12-19T07:47:18.076Z,1034.08
2017-12-19T07:48:18.057Z,1034.07
2017-12-19T07:49:18.033Z,1034.09
2017-12-19T07:50:18.012Z,1034.12
2017-12-19T07:51:17.990Z,1034.15
2017-12-19T07:52:17.970Z,1034.17
2017-12-19T07:53:17.946Z,1034.16
2017-12-19T07:54:17.933Z,1034.18
2017-12-19T07:55:17.904Z,1034.16
2017-12-19T07:56:17.881Z,1034.18
2017-12-19T07:57:17.860Z,1034.19
2017-12-19T07:58:17.840Z,1034.20
2017-12-19T07:59:17.819Z,1034.21
2017-12-19T08:00:17.797Z,1034.21
2017-12-19T08:01:17.774Z,1034.20
2017-12-19T08:02:17.775Z,1034.19
2017-12-19T08:03:17.733Z,1034.19
2017-12-19T08:04:17.709Z,1034.20
2017-12-19T08:05:17.688Z,1034.24
2017-12-19T08:06:17.668Z,1034.28
2017-12-19T08:07:17.646Z,1034.27
2017-12-19T08:08:17.623Z,1034.24
2017-12-19T08:09:17.603Z,1034.24
2017-12-19T08:10:17.581Z,1034.22
2017-12-19T08:11:17.561Z,1034.26
2017-12-19T08:12:17.538Z,1034.23
2017-12-19T08:13:17.518Z,1034.22
2017-12-19T08:14:17.534Z,1034.16
2017-12-19T08:15:17.475Z,1034.15
2017-12-19T08:16:17.452Z,1034.15
2017-12-19T08:17:17.430Z,1034.14
2017-12-19T08:18:17.408Z,1034.13
2017-12-19T08:19:17.387Z,1034.12
2017-12-19T08:20:17.365Z,1034.10
2017-12-19T08:21:17.346Z,1034.10
2017-12-19T08:22:17.323Z,1034.11
2017-12-19T08:23:17.301Z,1034.12
2017-12-19T08:24:17.280Z,1034.10
2017-12-19T08:25:17.257Z,1034.10
2017-12-19T08:26:17.240Z,1034.11
2017-12-19T08:27:17.216Z,1034.15
2017-12-19T08:28:17.194Z,1034.13
2017-12-19T08:29:17.172Z,1034.14
2017-12-19T08:30:17.151Z,1034.15
2017-12-19T08:31:17.130Z,1034.16
2017-12-19T08:32:17.107Z,1034.16
2017-12-19T08:33:17.087Z,1034.19
2017-12-19T08:34:17.065Z,1034.17
2017-12-19T08:35:17.043Z,1034.20
2017-12-19T08:36:17.021Z,1034.21
2017-12-19T08:37:17.001Z,1034.22
2017-12-19T08:38:16.979Z,1034.23
2017-12-19T08:39:16.959Z,1034.25
2017-12-19T08:40:16.936Z,1034.27
2017-12-19T08:41:16.915Z,1034.28
2017-12-19T08:42:16.893Z,1034.29
2017-12-19T08:43:16.871Z,1034.33
2017-12-19T08:44:16.849Z,1034.35
2017-12-19T08:45:16.828Z,1034.38
2017-12-19T08:46:16.806Z,1034.37
2017-12-19T08:47:16.785Z,1034.40
2017-12-19T08:48:16.764Z,1034.38
2017-12-19T08:49:16.741Z,1034.40
2017-12-19T08:50:16.721Z,1034.38
2017-12-19T08:51:16.700Z,1034.38
2017-12-19T08:52:16.677Z,1034.42
2017-12-19T08:53:16.656Z,1034.42
2017-12-19T08:54:16.635Z,1034.40
2017-12-19T08:55:16.614Z,1034.40
2017-12-19T08:56:16.591Z,1034.41
2017-12-19T08:57:16.570Z,1034.41
2017-12-19T08:58:16.552Z,1034.43
2017-12-19T08:59:16.535Z,1034.45
2017-12-19T09:00:16.505Z,1034.43
2017-12-19T09:01:16.483Z,1034.46
2017-12-19T09:02:16.495Z,1034.48
2017-12-19T09:03:16.441Z,1034.47
2017-12-19T09:04:16.419Z,1034.46
2017-12-19T09:05:16.397Z,1034.47
2017-12-19T09:06:16.377Z,1034.53
2017-12-19T09:07:16.357Z,1034.50
2017-12-19T09:08:16.334Z,1034.51
2017-12-19T09:09:16.355Z,1034.47
2017-12-19T09:10:16.290Z,1034.48
2017-12-19T09:11:16.272Z,1034.47
2017-12-19T09:12:16.247Z,1034.49
2017-12-19T09:13:16.225Z,1034.49
2017-12-19T09:14:16.206Z,1034.52
2017-12-19T09:15:16.182Z,1034.55
2017-12-19T09:16:16.161Z,1034.53
2017-12-19T09:17:16.139Z,1034.57
2017-12-19T09:18:16.119Z,1034.57
2017-12-19T09:19:16.098Z,1034.59
2017-12-19T09:20:16.075Z,1034.57
2017-12-19T09:21:16.052Z,1034.57
2017-12-19T09:22:16.034Z,1034.63
2017-12-19T09:23:16.014Z,1034.60
2017-12-19T09:24:15.989Z,1034.59
2017-12-19T09:25:15.967Z,1034.62
2017-12-19T09:26:15.946Z,1034.59
2017-12-19T09:27:15.925Z,1034.63
2017-12-19T09:28:15.902Z,1034.61
2017-12-19T09:29:15.882Z,1034.58
2017-12-19T09:30:15.860Z,1034.60
2017-12-19T09:31:15.839Z,1034.63
2017-12-19T09:32:15.817Z,1034.64
2017-12-19T09:33:15.796Z,1034.66
2017-12-19T09:34:15.775Z,1034.69
2017-12-19T09:35:15.752Z,1034.69
2017-12-19T09:36:15.730Z,1034.68
2017-12-19T09:37:15.708Z,1034.70
2017-12-19T09:38:15.689Z,1034.73
2017-12-19T09:39:15.666Z,1034.73
2017-12-19T09:40:15.645Z,1034.75
2017-12-19T09:41:15.623Z,1034.77
2017-12-19T09:42:15.602Z,1034.76
2017-12-19T09:43:15.582Z,1034.74
2017-12-19T09:44:15.558Z,1034.75
2017-12-19T09:45:15.536Z,1034.82
2017-12-19T09:46:15.515Z,1034.82
2017-12-19T09:47:15.494Z,1034.84
2017-12-19T09:48:15.472Z,1034.84
2017-12-19T09:49:15.452Z,1034.83
2017-12-19T09:50:15.428Z,1034.80
2017-12-19T09:51:15.407Z,1034.80
2017-12-19T09:52:15.386Z,1034.77
2017-12-19T09:53:15.364Z,1034.80
2017-12-19T09:54:15.341Z,1034.77
2017-12-19T09:55:15.320Z,1034.76
2017-12-19T09:56:15.299Z,1034.75
2017-12-19T09:57:15.277Z,1034.77
2017-12-19T09:58:15.256Z,1034.73
2017-12-19T09:59:15.233Z,1034.74
2017-12-19T10:00:15.212Z,1034.75
2017-12-19T10:01:15.191Z,1034.78
2017-12-19T10:02:15.168Z,1034.78
2017-12-19T10:03:15.147Z,1034.76
2017-12-19T10:04:15.125Z,1034.75
2017-12-19T10:05:15.103Z,1034.73
2017-12-19T10:06:15.082Z,1034.70
2017-12-19T10:07:15.060Z,1034.72
2017-12-19T10:08:15.038Z,1034.67
2017-12-19T10:09:15.018Z,1034.62
2017-12-19T10:10:14.995Z,1034.65
2017-12-19T10:11:14.975Z,1034.67
2017-12-19T10:12:15.006Z,1034.70
2017-12-19T10:13:14.930Z,1034.72
2017-12-19T10:14:14.909Z,1034.70
2017-12-19T10:15:14.887Z,1034.68
2017-12-19T10:16:15.049Z,1034.64
2017-12-19T10:17:14.844Z,1034.65
2017-12-19T10:18:14.823Z,1034.66
2017-12-19T10:19:14.801Z,1034.66
2017-12-19T10:20:14.780Z,1034.62
2017-12-19T10:21:14.757Z,1034.64
2017-12-19T10:22:14.736Z,1034.67
2017-12-19T10:23:14.714Z,1034.62
2017-12-19T10:24:14.692Z,1034.65
2017-12-19T10:25:14.671Z,1034.67
2017-12-19T10:26:14.653Z,1034.65
2017-12-19T10:27:14.629Z,1034.67
2017-12-19T10:28:14.607Z,1034.65
2017-12-19T10:29:14.592Z,1034.65
2017-12-19T10:30:14.562Z,1034.63
2017-12-19T10:31:14.541Z,1034.65
2017-12-19T10:32:14.519Z,1034.64
2017-12-19T10:33:14.498Z,1034.62
2017-12-19T10:34:14.519Z,1034.62
2017-12-19T10:35:14.459Z,1034.56
2017-12-19T10:36:14.432Z,1034.54
2017-12-19T10:37:14.410Z,1034.54
2017-12-19T10:38:14.389Z,1034.51
2017-12-19T10:39:14.368Z,1034.57
2017-12-19T10:40:14.347Z,1034.54
2017-12-19T10:41:14.332Z,1034.56
2017-12-19T10:42:14.304Z,1034.54
2017-12-19T10:43:14.283Z,1034.55
2017-12-19T10:44:14.261Z,1034.53
2017-12-19T10:45:14.240Z,1034.60
2017-12-19T10:46:14.218Z,1034.54
2017-12-19T10:47:14.199Z,1034.52
2017-12-19T10:48:14.173Z,1034.50
2017-12-19T10:49:14.151Z,1034.47
2017-12-19T10:50:14.130Z,1034.51
2017-12-19T10:51:14.108Z,1034.51
2017-12-19T10:52:14.086Z,1034.53
2017-12-19T10:53:14.065Z,1034.53
2017-12-19T10:54:14.046Z,1034.53
2017-12-19T10:55:14.023Z,1034.51
2017-12-19T10:56:14.002Z,1034.54
2017-12-19T10:57:13.984Z,1034.49
2017-12-19T10:58:13.959Z,1034.50
2017-12-19T10:59:13.937Z,1034.48
2017-12-19T11:00:13.915Z,1034.47
2017-12-19T11:01:13.892Z,1034.47
2017-12-19T11:02:13.871Z,1034.46
2017-12-19T11:03:13.850Z,1034.48
2017-12-19T11:04:13.828Z,1034.48
2017-12-19T11:05:13.807Z,1034.42
2017-12-19T11:06:13.785Z,1034.46
2017-12-19T11:07:13.765Z,1034.45
2017-12-19T11:08:13.742Z,1034.44
2017-12-19T11:09:13.723Z,1034.45
2017-12-19T11:10:13.700Z,1034.49
2017-12-19T11:11:13.678Z,1034.42
2017-12-19T11:12:13.658Z,1034.47
2017-12-19T11:13:13.634Z,1034.45
2017-12-19T11:14:13.612Z,1034.42
2017-12-19T11:15:13.591Z,1034.40
2017-12-19T11:16:13.569Z,1034.39
2017-12-19T11:17:13.549Z,1034.37
2017-12-19T11:18:13.526Z,1034.35
2017-12-19T11:19:13.504Z,1034.34
2017-12-19T11:20:13.482Z,1034.29
2017-12-19T11:21:13.462Z,1034.32
2017-12-19T11:22:13.444Z,1034.28
2017-12-19T11:23:13.419Z,1034.27
2017-12-19T11:24:13.396Z,1034.26
2017-12-19T11:25:13.374Z,1034.27
2017-12-19T11:26:13.354Z,1034.28
2017-12-19T11:27:13.332Z,1034.31
2017-12-19T11:28:13.309Z,1034.31
2017-12-19T11:29:13.288Z,1034.31
2017-12-19T11:30:13.266Z,1034.30
2017-12-19T11:31:13.245Z,1034.30
2017-12-19T11:32:13.223Z,1034.26
2017-12-19T11:33:13.202Z,1034.28
2017-12-19T11:34:13.180Z,1034.30
2017-12-19T11:35:13.159Z,1034.32
2017-12-19T11:36:13.137Z,1034.32
2017-12-19T11:37:13.116Z,1034.28
2017-12-19T11:38:13.094Z,1034.31
2017-12-19T11:39:13.072Z,1034.29
2017-12-19T11:40:13.051Z,1034.28
2017-12-19T11:41:13.029Z,1034.28
2017-12-19T11:42:13.036Z,1034.29
2017-12-19T11:43:12.987Z,1034.32
2017-12-19T11:44:12.965Z,1034.36
2017-12-19T11:45:12.942Z,1034.39
2017-12-19T11:46:12.922Z,1034.39
2017-12-19T11:47:12.899Z,1034.41
2017-12-19T11:48:12.878Z,1034.42
2017-12-19T11:49:12.857Z,1034.42
2017-12-19T11:50:12.834Z,1034.41
2017-12-19T11:51:12.813Z,1034.41
2017-12-19T11:52:12.790Z,1034.43
2017-12-19T11:53:12.770Z,1034.46
2017-12-19T11:54:12.749Z,1034.43
2017-12-19T11:55:12.726Z,1034.48
2017-12-19T11:56:12.704Z,1034.47
2017-12-19T11:57:12.683Z,1034.46
2017-12-19T11:58:12.662Z,1034.52
2017-12-19T11:59:12.640Z,1034.51
2017-12-19T12:00:12.617Z,1034.47
2017-12-19T12:01:12.596Z,1034.45
2017-12-19T12:02:12.575Z,1034.46
2017-12-19T12:03:12.553Z,1034.43
2017-12-19T12:04:12.532Z,1034.46
2017-12-19T12:05:12.510Z,1034.45
2017-12-19T12:06:12.489Z,1034.41
2017-12-19T12:07:12.467Z,1034.39